sensor_id;sensor_type;location;lat;lon;timestamp;pressure;altitude;pressure_sealevel;temperature;humidity
48942;BME280;35340;52.378;4.648;2023-03-01T00:00:31;103343.63;;;16.69;46.39
48942;BME280;35340;52.378;4.648;2023-03-01T00:06:25;103334.00;;;16.66;46.50
48942;BME280;35340;52.378;4.648;2023-03-01T00:08:51;103327.88;;;16.64;46.37
48942;BME280;35340;52.378;4.648;2023-03-01T00:11:22;103325.28;;;16.64;46.32
48942;BME280;35340;52.378;4.648;2023-03-01T00:16:36;103322.75;;;16.66;46.21
48942;BME280;35340;52.378;4.648;2023-03-01T00:19:04;103323.56;;;16.65;46.38
48942;BME280;35340;52.378;4.648;2023-03-01T00:21:31;103326.28;;;16.68;46.42
48942;BME280;35340;52.378;4.648;2023-03-01T00:23:57;103321.84;;;16.65;46.41
48942;BME280;35340;52.378;4.648;2023-03-01T00:26:26;103319.19;;;16.64;46.38
48942;BME280;35340;52.378;4.648;2023-03-01T00:32:43;103315.66;;;16.62;46.34
48942;BME280;35340;52.378;4.648;2023-03-01T00:35:08;103313.94;;;16.62;46.34
48942;BME280;35340;52.378;4.648;2023-03-01T00:40:49;103315.66;;;16.62;46.18
48942;BME280;35340;52.378;4.648;2023-03-01T00:43:14;103313.84;;;16.59;46.49
48942;BME280;35340;52.378;4.648;2023-03-01T00:45:40;103312.19;;;16.61;46.42
48942;BME280;35340;52.378;4.648;2023-03-01T00:48:06;103315.59;;;16.60;46.10
48942;BME280;35340;52.378;4.648;2023-03-01T00:50:31;103319.06;;;16.59;46.43
48942;BME280;35340;52.378;4.648;2023-03-01T00:52:57;103316.31;;;16.56;46.29
48942;BME280;35340;52.378;4.648;2023-03-01T00:55:23;103312.91;;;16.57;46.28
48942;BME280;35340;52.378;4.648;2023-03-01T00:57:48;103315.50;;;16.57;46.36
48942;BME280;35340;52.378;4.648;2023-03-01T01:00:14;103312.94;;;16.59;46.44
48942;BME280;35340;52.378;4.648;2023-03-01T01:02:40;103308.53;;;16.56;46.51
48942;BME280;35340;52.378;4.648;2023-03-01T01:05:05;103309.41;;;16.57;46.34
48942;BME280;35340;52.378;4.648;2023-03-01T01:10:21;103304.13;;;16.54;46.50
48942;BME280;35340;52.378;4.648;2023-03-01T01:12:46;103302.38;;;16.54;46.47
48942;BME280;35340;52.378;4.648;2023-03-01T01:15:18;103307.56;;;16.53;46.39
48942;BME280;35340;52.378;4.648;2023-03-01T01:18:06;103292.84;;;16.53;46.48
48942;BME280;35340;52.378;4.648;2023-03-01T01:20:32;103296.31;;;16.54;46.30
48942;BME280;35340;52.378;4.648;2023-03-01T01:22:58;103299.78;;;16.54;46.19
48942;BME280;35340;52.378;4.648;2023-03-01T01:25:23;103293.63;;;16.51;46.58
48942;BME280;35340;52.378;4.648;2023-03-01T01:27:51;103292.78;;;16.52;46.54
48942;BME280;35340;52.378;4.648;2023-03-01T01:30:17;103281.44;;;16.50;46.53
48942;BME280;35340;52.378;4.648;2023-03-01T01:32:42;103273.72;;;16.51;46.32
48942;BME280;35340;52.378;4.648;2023-03-01T01:37:50;103270.22;;;16.51;46.49
48942;BME280;35340;52.378;4.648;2023-03-01T01:40:15;103259.72;;;16.48;46.43
48942;BME280;35340;52.378;4.648;2023-03-01T01:48:07;103251.97;;;16.49;46.55
48942;BME280;35340;52.378;4.648;2023-03-01T01:58:21;103247.72;;;16.51;46.52
48942;BME280;35340;52.378;4.648;2023-03-01T02:00:47;103253.84;;;16.53;46.59
48942;BME280;35340;52.378;4.648;2023-03-01T02:03:17;103245.94;;;16.50;46.64
48942;BME280;35340;52.378;4.648;2023-03-01T02:05:55;103246.00;;;16.52;46.63
48942;BME280;35340;52.378;4.648;2023-03-01T02:08:24;103248.59;;;16.52;46.68
48942;BME280;35340;52.378;4.648;2023-03-01T02:10:51;103253.84;;;16.53;46.62
48942;BME280;35340;52.378;4.648;2023-03-01T02:15:53;103251.19;;;16.52;46.69
48942;BME280;35340;52.378;4.648;2023-03-01T02:18:21;103246.78;;;16.49;46.64
48942;BME280;35340;52.378;4.648;2023-03-01T02:31:21;103236.38;;;16.49;46.66
48942;BME280;35340;52.378;4.648;2023-03-01T02:34:06;103229.53;;;16.51;46.81
48942;BME280;35340;52.378;4.648;2023-03-01T02:44:18;103223.31;;;16.48;46.81
48942;BME280;35340;52.378;4.648;2023-03-01T03:06:02;103211.31;;;16.51;46.71
48942;BME280;35340;52.378;4.648;2023-03-01T03:18:49;103199.13;;;16.49;46.74
48942;BME280;35340;52.378;4.648;2023-03-01T03:21:15;103195.69;;;16.50;46.89
48942;BME280;35340;52.378;4.648;2023-03-01T03:23:41;103194.81;;;16.49;46.85
48942;BME280;35340;52.378;4.648;2023-03-01T03:31:18;103182.69;;;16.50;46.96
48942;BME280;35340;52.378;4.648;2023-03-01T03:42:10;103177.47;;;16.50;47.00
48942;BME280;35340;52.378;4.648;2023-03-01T03:44:36;103176.59;;;16.49;46.93
48942;BME280;35340;52.378;4.648;2023-03-01T04:00:11;103176.47;;;16.44;47.13
48942;BME280;35340;52.378;4.648;2023-03-01T04:02:40;103173.88;;;16.46;46.84
48942;BME280;35340;52.378;4.648;2023-03-01T04:07:41;103172.94;;;16.42;47.02
48942;BME280;35340;52.378;4.648;2023-03-01T04:15:18;103172.81;;;16.39;46.98
48942;BME280;35340;52.378;4.648;2023-03-01T04:20:21;103170.19;;;16.38;47.21
48942;BME280;35340;52.378;4.648;2023-03-01T04:22:51;103159.78;;;16.38;47.19
48942;BME280;35340;52.378;4.648;2023-03-01T04:25:17;103159.78;;;16.38;47.34
48942;BME280;35340;52.378;4.648;2023-03-01T04:27:43;103161.53;;;16.39;47.30
48942;BME280;35340;52.378;4.648;2023-03-01T04:30:09;103155.47;;;16.38;47.25
48942;BME280;35340;52.378;4.648;2023-03-01T04:32:35;103151.19;;;16.40;47.01
48942;BME280;35340;52.378;4.648;2023-03-01T04:35:01;103153.81;;;16.40;47.12
48942;BME280;35340;52.378;4.648;2023-03-01T04:37:26;103148.53;;;16.39;47.08
48942;BME280;35340;52.378;4.648;2023-03-01T04:39:52;103152.06;;;16.41;47.21
48942;BME280;35340;52.378;4.648;2023-03-01T04:42:18;103153.88;;;16.43;46.90
48942;BME280;35340;52.378;4.648;2023-03-01T04:44:44;103149.47;;;16.41;47.16
48942;BME280;35340;52.378;4.648;2023-03-01T04:47:10;103139.97;;;16.41;47.25
48942;BME280;35340;52.378;4.648;2023-03-01T04:49:35;103142.53;;;16.40;47.07
48942;BME280;35340;52.378;4.648;2023-03-01T04:52:01;103138.09;;;16.37;47.14
48942;BME280;35340;52.378;4.648;2023-03-01T04:54:28;103132.91;;;16.37;47.14
48942;BME280;35340;52.378;4.648;2023-03-01T04:56:54;103134.63;;;16.37;47.14
48942;BME280;35340;52.378;4.648;2023-03-01T04:59:20;103140.66;;;16.36;47.05
48942;BME280;35340;52.378;4.648;2023-03-01T05:01:48;103144.13;;;16.36;47.25
48942;BME280;35340;52.378;4.648;2023-03-01T05:04:13;103145.00;;;16.37;47.17
48942;BME280;35340;52.378;4.648;2023-03-01T05:06:39;103145.88;;;16.36;47.12
48942;BME280;35340;52.378;4.648;2023-03-01T05:09:04;103146.72;;;16.36;47.29
48942;BME280;35340;52.378;4.648;2023-03-01T05:11:30;103149.34;;;16.36;47.18
48942;BME280;35340;52.378;4.648;2023-03-01T05:13:58;103153.69;;;16.37;47.13
48942;BME280;35340;52.378;4.648;2023-03-01T05:16:24;103142.38;;;16.35;46.96
48942;BME280;35340;52.378;4.648;2023-03-01T05:18:49;103140.69;;;16.37;47.12
48942;BME280;35340;52.378;4.648;2023-03-01T05:21:20;103131.19;;;16.38;46.86
48942;BME280;35340;52.378;4.648;2023-03-01T05:23:46;103128.59;;;16.38;46.76
48942;BME280;35340;52.378;4.648;2023-03-01T05:26:12;103122.56;;;16.39;47.10
48942;BME280;35340;52.378;4.648;2023-03-01T05:28:38;103121.75;;;16.40;47.15
48942;BME280;35340;52.378;4.648;2023-03-01T05:31:05;103127.81;;;16.40;46.81
48942;BME280;35340;52.378;4.648;2023-03-01T05:33:36;103116.44;;;16.37;46.84
48942;BME280;35340;52.378;4.648;2023-03-01T05:36:02;103116.47;;;16.38;46.96
48942;BME280;35340;52.378;4.648;2023-03-01T05:38:27;103111.34;;;16.40;46.92
48942;BME280;35340;52.378;4.648;2023-03-01T05:40:53;103106.97;;;16.39;47.04
48942;BME280;35340;52.378;4.648;2023-03-01T05:43:18;103105.22;;;16.38;47.06
48942;BME280;35340;52.378;4.648;2023-03-01T05:45:44;103107.09;;;16.42;46.85
48942;BME280;35340;52.378;4.648;2023-03-01T05:48:11;103097.44;;;16.39;47.08
48942;BME280;35340;52.378;4.648;2023-03-01T05:50:42;103101.81;;;16.40;46.95
48942;BME280;35340;52.378;4.648;2023-03-01T05:53:19;103096.50;;;16.37;46.90
48942;BME280;35340;52.378;4.648;2023-03-01T05:55:48;103099.22;;;16.40;47.04
48942;BME280;35340;52.378;4.648;2023-03-01T05:58:17;103088.78;;;16.39;46.84
48942;BME280;35340;52.378;4.648;2023-03-01T06:00:48;103095.75;;;16.40;46.97
48942;BME280;35340;52.378;4.648;2023-03-01T06:03:15;103096.69;;;16.42;46.90
48942;BME280;35340;52.378;4.648;2023-03-01T06:05:41;103104.44;;;16.40;46.73
48942;BME280;35340;52.378;4.648;2023-03-01T06:08:09;103100.97;;;16.41;46.62
48942;BME280;35340;52.378;4.648;2023-03-01T06:10:35;103100.03;;;16.38;47.12
48942;BME280;35340;52.378;4.648;2023-03-01T06:13:03;103102.69;;;16.41;46.91
48942;BME280;35340;52.378;4.648;2023-03-01T06:15:28;103096.72;;;16.43;46.98
48942;BME280;35340;52.378;4.648;2023-03-01T06:17:55;103100.22;;;16.44;47.22
48942;BME280;35340;52.378;4.648;2023-03-01T06:20:26;103087.25;;;16.45;46.79
48942;BME280;35340;52.378;4.648;2023-03-01T06:22:52;103098.50;;;16.44;46.96
48942;BME280;35340;52.378;4.648;2023-03-01T06:25:20;103091.56;;;16.45;46.80
48942;BME280;35340;52.378;4.648;2023-03-01T06:27:47;103086.38;;;16.45;46.66
48942;BME280;35340;52.378;4.648;2023-03-01T06:30:16;103088.13;;;16.46;46.88
48942;BME280;35340;52.378;4.648;2023-03-01T06:32:42;103082.03;;;16.45;46.76
48942;BME280;35340;52.378;4.648;2023-03-01T06:35:09;103088.13;;;16.46;46.77
48942;BME280;35340;52.378;4.648;2023-03-01T06:37:34;103079.44;;;16.45;46.97
48942;BME280;35340;52.378;4.648;2023-03-01T06:40:03;103076.91;;;16.47;46.79
48942;BME280;35340;52.378;4.648;2023-03-01T06:42:37;103082.97;;;16.48;46.73
48942;BME280;35340;52.378;4.648;2023-03-01T06:45:04;103080.44;;;16.49;46.83
48942;BME280;35340;52.378;4.648;2023-03-01T06:47:30;103080.50;;;16.51;47.05
48942;BME280;35340;52.378;4.648;2023-03-01T06:49:55;103084.91;;;16.53;46.88
48942;BME280;35340;52.378;4.648;2023-03-01T06:52:21;103088.78;;;16.67;47.15
48942;BME280;35340;52.378;4.648;2023-03-01T06:58:33;103082.88;;;17.02;47.02
48942;BME280;35340;52.378;4.648;2023-03-01T07:00:58;103082.09;;;17.04;47.11
48942;BME280;35340;52.378;4.648;2023-03-01T07:03:23;103080.41;;;17.05;46.91
48942;BME280;35340;52.378;4.648;2023-03-01T07:05:49;103075.13;;;17.03;46.96
48942;BME280;35340;52.378;4.648;2023-03-01T07:08:17;103077.81;;;17.06;47.07
48942;BME280;35340;52.378;4.648;2023-03-01T07:10:43;103081.28;;;17.07;47.11
48942;BME280;35340;52.378;4.648;2023-03-01T07:13:08;103089.16;;;17.09;46.94
48942;BME280;35340;52.378;4.648;2023-03-01T07:15:34;103094.41;;;17.10;46.98
48942;BME280;35340;52.378;4.648;2023-03-01T07:17:59;103090.94;;;17.10;46.93
48942;BME280;35340;52.378;4.648;2023-03-01T07:20:24;103093.53;;;17.10;46.92
48942;BME280;35340;52.378;4.648;2023-03-01T07:22:53;103096.06;;;17.08;46.92
48942;BME280;35340;52.378;4.648;2023-03-01T07:25:19;103095.22;;;17.09;46.96
48942;BME280;35340;52.378;4.648;2023-03-01T07:27:50;103103.13;;;17.12;46.86
48942;BME280;35340;52.378;4.648;2023-03-01T07:30:16;103102.25;;;17.12;46.84
48942;BME280;35340;52.378;4.648;2023-03-01T07:32:41;103108.28;;;17.11;46.77
48942;BME280;35340;52.378;4.648;2023-03-01T07:35:07;103095.28;;;17.11;46.62
48942;BME280;35340;52.378;4.648;2023-03-01T07:37:33;103103.94;;;17.10;46.83
48942;BME280;35340;52.378;4.648;2023-03-01T07:39:58;103104.88;;;17.12;46.91
48942;BME280;35340;52.378;4.648;2023-03-01T07:42:24;103108.34;;;17.12;46.66
48942;BME280;35340;52.378;4.648;2023-03-01T07:44:49;103117.88;;;17.12;46.67
48942;BME280;35340;52.378;4.648;2023-03-01T07:47:14;103123.84;;;17.09;46.67
48942;BME280;35340;52.378;4.648;2023-03-01T07:49:42;103119.53;;;17.10;46.85
48942;BME280;35340;52.378;4.648;2023-03-01T07:52:11;103124.69;;;17.08;46.86
48942;BME280;35340;52.378;4.648;2023-03-01T07:54:38;103123.03;;;17.10;46.97
48942;BME280;35340;52.378;4.648;2023-03-01T07:57:03;103114.34;;;17.10;46.80
48942;BME280;35340;52.378;4.648;2023-03-01T07:59:29;103107.41;;;17.10;46.61
48942;BME280;35340;52.378;4.648;2023-03-01T08:02:13;103105.69;;;17.11;46.61
48942;BME280;35340;52.378;4.648;2023-03-01T08:04:43;103095.34;;;17.12;46.79
48942;BME280;35340;52.378;4.648;2023-03-01T08:07:09;103101.41;;;17.13;46.80
48942;BME280;35340;52.378;4.648;2023-03-01T08:09:37;103103.19;;;17.14;46.72
48942;BME280;35340;52.378;4.648;2023-03-01T08:12:06;103104.88;;;17.12;46.48
48942;BME280;35340;52.378;4.648;2023-03-01T08:14:32;103106.66;;;17.14;46.74
48942;BME280;35340;52.378;4.648;2023-03-01T08:16:57;103099.72;;;17.15;46.65
48942;BME280;35340;52.378;4.648;2023-03-01T08:19:23;103104.94;;;17.15;46.66
48942;BME280;35340;52.378;4.648;2023-03-01T08:21:49;103111.06;;;17.17;46.71
48942;BME280;35340;52.378;4.648;2023-03-01T08:24:14;103108.47;;;17.17;46.58
48942;BME280;35340;52.378;4.648;2023-03-01T08:26:40;103098.94;;;17.17;46.68
48942;BME280;35340;52.378;4.648;2023-03-01T08:29:05;103108.53;;;17.18;46.32
48942;BME280;35340;52.378;4.648;2023-03-01T08:31:36;103098.94;;;17.17;46.44
48942;BME280;35340;52.378;4.648;2023-03-01T08:34:07;103100.72;;;17.20;46.58
48942;BME280;35340;52.378;4.648;2023-03-01T08:36:36;103099.91;;;17.21;46.52
48942;BME280;35340;52.378;4.648;2023-03-01T08:39:03;103094.78;;;17.24;46.62
48942;BME280;35340;52.378;4.648;2023-03-01T08:41:29;103091.31;;;17.23;46.74
48942;BME280;35340;52.378;4.648;2023-03-01T08:43:57;103086.97;;;17.24;46.64
48942;BME280;35340;52.378;4.648;2023-03-01T08:46:34;103088.75;;;17.25;46.74
48942;BME280;35340;52.378;4.648;2023-03-01T08:49:07;103089.69;;;17.27;46.38
48942;BME280;35340;52.378;4.648;2023-03-01T08:51:33;103090.63;;;17.31;46.44
48942;BME280;35340;52.378;4.648;2023-03-01T08:54:06;103094.13;;;17.31;46.53
48942;BME280;35340;52.378;4.648;2023-03-01T08:56:32;103092.34;;;17.30;46.20
48942;BME280;35340;52.378;4.648;2023-03-01T08:58:57;103088.88;;;17.30;46.32
48942;BME280;35340;52.378;4.648;2023-03-01T09:01:23;103088.00;;;17.29;46.22
48942;BME280;35340;52.378;4.648;2023-03-01T09:03:48;103095.06;;;17.35;46.38
48942;BME280;35340;52.378;4.648;2023-03-01T09:06:14;103094.19;;;17.34;46.46
48942;BME280;35340;52.378;4.648;2023-03-01T09:08:45;103092.34;;;17.30;46.29
48942;BME280;35340;52.378;4.648;2023-03-01T09:11:14;103096.72;;;17.31;46.45
48942;BME280;35340;52.378;4.648;2023-03-01T09:13:41;103090.72;;;17.34;46.24
48942;BME280;35340;52.378;4.648;2023-03-01T09:16:07;103084.78;;;17.39;46.23
48942;BME280;35340;52.378;4.648;2023-03-01T09:18:34;103087.38;;;17.39;46.21
48942;BME280;35340;52.378;4.648;2023-03-01T09:21:11;103093.53;;;17.41;46.28
48942;BME280;35340;52.378;4.648;2023-03-01T09:23:38;103087.56;;;17.45;46.02
48942;BME280;35340;52.378;4.648;2023-03-01T09:26:14;103083.34;;;17.51;45.99
48942;BME280;35340;52.378;4.648;2023-03-01T09:28:41;103080.03;;;17.56;46.18
48942;BME280;35340;52.378;4.648;2023-03-01T09:31:07;103088.97;;;17.66;45.82
48942;BME280;35340;52.378;4.648;2023-03-01T09:33:33;103093.16;;;17.61;45.90
48942;BME280;35340;52.378;4.648;2023-03-01T09:36:04;103086.13;;;17.57;45.99
48942;BME280;35340;52.378;4.648;2023-03-01T09:38:29;103079.97;;;17.53;45.99
48942;BME280;35340;52.378;4.648;2023-03-01T09:40:55;103073.03;;;17.54;45.97
48942;BME280;35340;52.378;4.648;2023-03-01T09:43:46;103076.84;;;17.66;45.88
48942;BME280;35340;52.378;4.648;2023-03-01T09:46:20;103078.56;;;17.66;45.87
48942;BME280;35340;52.378;4.648;2023-03-01T09:49:02;103066.38;;;17.65;45.83
48942;BME280;35340;52.378;4.648;2023-03-01T09:51:34;103066.44;;;17.66;45.83
48942;BME280;35340;52.378;4.648;2023-03-01T09:54:02;103063.88;;;17.69;45.44
48942;BME280;35340;52.378;4.648;2023-03-01T09:56:40;103073.66;;;17.78;45.65
48942;BME280;35340;52.378;4.648;2023-03-01T09:59:33;103078.91;;;17.80;45.42
48942;BME280;35340;52.378;4.648;2023-03-01T10:02:32;103078.13;;;17.82;45.54
48942;BME280;35340;52.378;4.648;2023-03-01T10:05:32;103066.75;;;17.80;45.48
48942;BME280;35340;52.378;4.648;2023-03-01T10:10:47;103063.59;;;17.91;45.11
48942;BME280;35340;52.378;4.648;2023-03-01T10:13:19;103057.41;;;17.87;45.45
48942;BME280;35340;52.378;4.648;2023-03-01T10:15:53;103052.13;;;17.84;45.43
48942;BME280;35340;52.378;4.648;2023-03-01T10:18:22;103051.09;;;17.79;45.58
48942;BME280;35340;52.378;4.648;2023-03-01T10:20:57;103050.97;;;17.73;45.81
48942;BME280;35340;52.378;4.648;2023-03-01T10:23:24;103056.13;;;17.71;45.94
48942;BME280;35340;52.378;4.648;2023-03-01T10:26:02;103050.97;;;17.73;45.81
48942;BME280;35340;52.378;4.648;2023-03-01T10:28:49;103045.69;;;17.71;46.21
48942;BME280;35340;52.378;4.648;2023-03-01T10:31:21;103052.66;;;17.72;45.83
48942;BME280;35340;52.378;4.648;2023-03-01T10:33:53;103040.50;;;17.71;45.95
48942;BME280;35340;52.378;4.648;2023-03-01T10:36:21;103038.66;;;17.67;46.01
48942;BME280;35340;52.378;4.648;2023-03-01T10:39:14;103033.50;;;17.68;45.94
48942;BME280;35340;52.378;4.648;2023-03-01T10:41:59;103036.09;;;17.68;45.88
48942;BME280;35340;52.378;4.648;2023-03-01T10:44:45;103030.84;;;17.67;46.09
48942;BME280;35340;52.378;4.648;2023-03-01T10:47:26;103029.13;;;17.67;45.99
48942;BME280;35340;52.378;4.648;2023-03-01T10:50:01;103017.78;;;17.65;46.05
48942;BME280;35340;52.378;4.648;2023-03-01T10:52:34;103011.69;;;17.65;46.11
48942;BME280;35340;52.378;4.648;2023-03-01T10:57:39;103009.97;;;17.65;46.08
48942;BME280;35340;52.378;4.648;2023-03-01T11:02:51;103005.66;;;17.66;46.01
48942;BME280;35340;52.378;4.648;2023-03-01T11:05:20;103003.06;;;17.67;45.72
48942;BME280;35340;52.378;4.648;2023-03-01T11:08:05;103002.25;;;17.68;46.05
48942;BME280;35340;52.378;4.648;2023-03-01T11:10:35;102998.78;;;17.69;46.01
48942;BME280;35340;52.378;4.648;2023-03-01T11:13:14;103003.13;;;17.69;46.30
48942;BME280;35340;52.378;4.648;2023-03-01T11:16:07;103002.25;;;17.70;45.82
48942;BME280;35340;52.378;4.648;2023-03-01T11:18:34;103004.00;;;17.69;46.06
48942;BME280;35340;52.378;4.648;2023-03-01T11:21:01;103003.16;;;17.71;45.87
48942;BME280;35340;52.378;4.648;2023-03-01T11:23:28;102997.97;;;17.72;46.06
48942;BME280;35340;52.378;4.648;2023-03-01T11:26:00;102994.50;;;17.72;45.94
48942;BME280;35340;52.378;4.648;2023-03-01T11:28:28;102994.50;;;17.72;45.84
48942;BME280;35340;52.378;4.648;2023-03-01T11:31:07;102989.34;;;17.73;45.90
48942;BME280;35340;52.378;4.648;2023-03-01T11:33:49;102986.72;;;17.73;45.74
48942;BME280;35340;52.378;4.648;2023-03-01T11:36:43;102981.56;;;17.75;45.81
48942;BME280;35340;52.378;4.648;2023-03-01T11:39:15;102975.50;;;17.76;45.80
48942;BME280;35340;52.378;4.648;2023-03-01T11:41:48;102978.09;;;17.76;45.58
48942;BME280;35340;52.378;4.648;2023-03-01T11:44:24;102971.22;;;17.78;45.80
48942;BME280;35340;52.378;4.648;2023-03-01T11:55:19;102953.03;;;17.79;45.41
48942;BME280;35340;52.378;4.648;2023-03-01T11:58:13;102957.50;;;17.83;45.73
48942;BME280;35340;52.378;4.648;2023-03-01T12:06:04;102932.34;;;17.85;45.49
48942;BME280;35340;52.378;4.648;2023-03-01T12:12:11;102930.66;;;17.87;45.43
48942;BME280;35340;52.378;4.648;2023-03-01T12:14:55;102925.44;;;17.87;45.21
48942;BME280;35340;52.378;4.648;2023-03-01T12:17:47;102918.53;;;17.89;45.31
48942;BME280;35340;52.378;4.648;2023-03-01T12:20:36;102915.97;;;17.91;45.21
48942;BME280;35340;52.378;4.648;2023-03-01T12:23:30;102914.25;;;17.92;45.12
48942;BME280;35340;52.378;4.648;2023-03-01T12:28:37;102904.66;;;17.89;45.17
48942;BME280;35340;52.378;4.648;2023-03-01T12:31:20;102909.81;;;17.87;45.36
48942;BME280;35340;52.378;4.648;2023-03-01T12:44:34;102907.19;;;17.86;45.52
48942;BME280;35340;52.378;4.648;2023-03-01T12:47:30;102895.03;;;17.86;45.34
48942;BME280;35340;52.378;4.648;2023-03-01T12:50:05;102888.06;;;17.85;45.17
48942;BME280;35340;52.378;4.648;2023-03-01T12:52:41;102898.53;;;17.87;45.22
48942;BME280;35340;52.378;4.648;2023-03-01T12:55:39;102892.44;;;17.86;45.18
48942;BME280;35340;52.378;4.648;2023-03-01T12:58:21;102886.38;;;17.86;45.13
48942;BME280;35340;52.378;4.648;2023-03-01T13:09:37;102875.03;;;17.85;45.08
48942;BME280;35340;52.378;4.648;2023-03-01T13:15:29;102868.13;;;17.87;45.26
48942;BME280;35340;52.378;4.648;2023-03-01T13:18:03;102863.78;;;17.86;45.04
48942;BME280;35340;52.378;4.648;2023-03-01T13:28:53;102854.28;;;17.88;45.03
48942;BME280;35340;52.378;4.648;2023-03-01T13:33:49;102853.44;;;17.89;45.12
48942;BME280;35340;52.378;4.648;2023-03-01T13:38:56;102849.13;;;17.90;45.08
48942;BME280;35340;52.378;4.648;2023-03-01T13:44:21;102848.25;;;17.91;44.83
48942;BME280;35340;52.378;4.648;2023-03-01T13:46:53;102848.22;;;17.89;44.98
48942;BME280;35340;52.378;4.648;2023-03-01T13:49:23;102835.19;;;17.88;45.02
48942;BME280;35340;52.378;4.648;2023-03-01T13:51:51;102832.59;;;17.89;44.82
48942;BME280;35340;52.378;4.648;2023-03-01T13:54:25;102826.47;;;17.87;44.70
48942;BME280;35340;52.378;4.648;2023-03-01T13:56:52;102837.78;;;17.89;45.12
48942;BME280;35340;52.378;4.648;2023-03-01T13:59:20;102828.19;;;17.87;44.91
48942;BME280;35340;52.378;4.648;2023-03-01T14:01:57;102828.16;;;17.85;45.00
48942;BME280;35340;52.378;4.648;2023-03-01T14:04:24;102818.66;;;17.87;45.01
48942;BME280;35340;52.378;4.648;2023-03-01T14:06:51;102809.97;;;17.87;45.10
48942;BME280;35340;52.378;4.648;2023-03-01T14:09:25;102812.56;;;17.87;44.95
48942;BME280;35340;52.378;4.648;2023-03-01T14:14:52;102806.50;;;17.86;45.12
48942;BME280;35340;52.378;4.648;2023-03-01T14:19:59;102791.69;;;17.85;44.77
48942;BME280;35340;52.378;4.648;2023-03-01T14:22:30;102802.97;;;17.84;44.92
48942;BME280;35340;52.378;4.648;2023-03-01T14:25:05;102796.91;;;17.84;45.50
48942;BME280;35340;52.378;4.648;2023-03-01T14:27:39;102789.91;;;17.83;44.91
48942;BME280;35340;52.378;4.648;2023-03-01T14:30:15;102784.75;;;17.84;45.07
48942;BME280;35340;52.378;4.648;2023-03-01T14:32:58;102778.63;;;17.82;45.17
48942;BME280;35340;52.378;4.648;2023-03-01T14:35:28;102769.94;;;17.82;45.25
48942;BME280;35340;52.378;4.648;2023-03-01T14:37:54;102779.50;;;17.83;45.13
48942;BME280;35340;52.378;4.648;2023-03-01T14:40:27;102763.00;;;17.82;44.98
48942;BME280;35340;52.378;4.648;2023-03-01T14:42:55;102761.22;;;17.81;44.99
48942;BME280;35340;52.378;4.648;2023-03-01T14:45:22;102757.72;;;17.81;45.18
48942;BME280;35340;52.378;4.648;2023-03-01T14:47:50;102755.09;;;17.79;45.17
48942;BME280;35340;52.378;4.648;2023-03-01T14:50:28;102755.09;;;17.79;44.99
48942;BME280;35340;52.378;4.648;2023-03-01T14:52:58;102754.19;;;17.79;44.70
48942;BME280;35340;52.378;4.648;2023-03-01T14:57:56;102739.44;;;17.78;44.61
48942;BME280;35340;52.378;4.648;2023-03-01T15:00:25;102742.88;;;17.77;44.68
48942;BME280;35340;52.378;4.648;2023-03-01T15:02:52;102746.38;;;17.77;44.58
48942;BME280;35340;52.378;4.648;2023-03-01T15:05:27;102745.47;;;17.77;44.56
48942;BME280;35340;52.378;4.648;2023-03-01T15:07:55;102746.31;;;17.74;44.41
48942;BME280;35340;52.378;4.648;2023-03-01T15:10:27;102738.50;;;17.74;44.68
48942;BME280;35340;52.378;4.648;2023-03-01T15:12:53;102744.59;;;17.75;44.28
48942;BME280;35340;52.378;4.648;2023-03-01T15:17:56;102736.75;;;17.73;44.39
48942;BME280;35340;52.378;4.648;2023-03-01T15:20:25;102737.63;;;17.74;44.38
48942;BME280;35340;52.378;4.648;2023-03-01T15:22:53;102734.97;;;17.72;44.66
48942;BME280;35340;52.378;4.648;2023-03-01T15:25:23;102736.72;;;17.72;44.40
48942;BME280;35340;52.378;4.648;2023-03-01T15:27:52;102735.84;;;17.71;44.75
48942;BME280;35340;52.378;4.648;2023-03-01T15:30:22;102737.56;;;17.71;44.39
48942;BME280;35340;52.378;4.648;2023-03-01T15:32:49;102724.50;;;17.69;44.78
48942;BME280;35340;52.378;4.648;2023-03-01T15:35:47;102721.94;;;17.72;44.44
48942;BME280;35340;52.378;4.648;2023-03-01T15:38:35;102724.56;;;17.71;44.44
48942;BME280;35340;52.378;4.648;2023-03-01T15:41:27;102717.63;;;17.71;44.23
48942;BME280;35340;52.378;4.648;2023-03-01T15:43:54;102711.50;;;17.69;44.22
48942;BME280;35340;52.378;4.648;2023-03-01T15:46:38;102717.53;;;17.68;44.27
48942;BME280;35340;52.378;4.648;2023-03-01T15:49:18;102714.06;;;17.67;44.15
48942;BME280;35340;52.378;4.648;2023-03-01T15:51:51;102722.72;;;17.66;44.42
48942;BME280;35340;52.378;4.648;2023-03-01T15:54:21;102707.97;;;17.67;44.47
48942;BME280;35340;52.378;4.648;2023-03-01T15:56:48;102707.94;;;17.65;44.27
48942;BME280;35340;52.378;4.648;2023-03-01T15:59:14;102712.31;;;17.66;44.49
48942;BME280;35340;52.378;4.648;2023-03-01T16:01:44;102701.84;;;17.65;44.80
48942;BME280;35340;52.378;4.648;2023-03-01T16:04:11;102704.47;;;17.65;44.72
48942;BME280;35340;52.378;4.648;2023-03-01T16:06:38;102707.03;;;17.63;45.02
48942;BME280;35340;52.378;4.648;2023-03-01T16:09:04;102706.13;;;17.61;44.75
48942;BME280;35340;52.378;4.648;2023-03-01T16:11:30;102700.91;;;17.61;44.75
48942;BME280;35340;52.378;4.648;2023-03-01T16:13:57;102704.47;;;17.65;45.02
48942;BME280;35340;52.378;4.648;2023-03-01T16:16:23;102694.09;;;17.68;44.88
48942;BME280;35340;52.378;4.648;2023-03-01T16:18:48;102695.91;;;17.72;44.82
48942;BME280;35340;52.378;4.648;2023-03-01T16:21:17;102690.72;;;17.72;44.66
48942;BME280;35340;52.378;4.648;2023-03-01T16:23:44;102687.22;;;17.72;44.97
48942;BME280;35340;52.378;4.648;2023-03-01T16:26:10;102692.44;;;17.72;45.01